Погода Борадигяхна 2 недели

Ленкоранский район, Азербайджан

13 - 26 июня
  • 13июня
    Сегодня
    +21°
    +32°
    Практически безоблачно
    ВремяПогодаТемператураВлажностьДавлениеВетер, м/сВероятность осадков
    01:00Ясно и безоблачно+22°C85 %758 мм1.3 м/с2 %
    04:00Ясно и безоблачно+21°C81 %758 мм1.3 м/с2 %
    07:00Ясно и безоблачно+23°C80 %759 мм0.6 м/с2 %
    10:00Ясно и безоблачно+30°C55 %759 мм2.4 м/с2 %
    13:00Практически безоблачно+32°C53 %758 мм4.2 м/с6 %
    16:00Небольшая облачность+31°C54 %757 мм4.6 м/с9 %
    19:00Ясно и безоблачно+28°C71 %757 мм3.5 м/с5 %
    22:00Ясно и безоблачно+24°C80 %758 мм1.8 м/с2 %
  • 14июня
    Пятница
    +20°
    +31°
    Практически безоблачно
    ВремяПогодаТемператураВлажностьДавлениеВетер, м/сВероятность осадков
    01:00Практически безоблачно+22°C81 %757 мм1.4 м/с2 %
    04:00Небольшая облачность+22°C85 %757 мм1.8 м/с2 %
    07:00Ясно и безоблачно+23°C80 %758 мм1.1 м/с2 %
    10:00Ясно и безоблачно+30°C65 %758 мм3.0 м/с7 %
    13:00Практически безоблачно+31°C58 %758 мм4.7 м/с16 %
    16:00Практически безоблачно+30°C65 %757 мм4.9 м/с17 %
    19:00Небольшая облачность+27°C72 %757 мм3.3 м/с6 %
    22:00Ясно и безоблачно+23°C88 %758 мм2.1 м/с2 %
  • 15июня
    Суббота
    +21°
    +31°
    Ясно и безоблачно
    ВремяПогодаТемператураВлажностьДавлениеВетер, м/сВероятность осадков
    01:00Ясно и безоблачно+22°C90 %757 мм1.6 м/с2 %
    04:00Ясно и безоблачно+21°C85 %756 мм1.4 м/с2 %
    07:00Ясно и безоблачно+23°C77 %757 мм1.2 м/с2 %
    10:00Ясно и безоблачно+30°C63 %756 мм3.7 м/с2 %
    13:00Ясно и безоблачно+31°C55 %755 мм5.1 м/с4 %
    16:00Практически безоблачно+30°C57 %754 мм5.1 м/с4 %
    19:00Ясно и безоблачно+27°C75 %754 мм4.0 м/с2 %
    22:00Ясно и безоблачно+23°C84 %756 мм3.0 м/с2 %
  • 16июня
    Воскресенье
    +21°
    +31°
    Ясно и безоблачно
    ВремяПогодаТемператураВлажностьДавлениеВетер, м/сВероятность осадков
    01:00Ясно и безоблачно+22°C87 %755 мм2.0 м/с2 %
    04:00Ясно и безоблачно+21°C86 %754 мм1.7 м/с2 %
    07:00Ясно и безоблачно+23°C85 %756 мм1.7 м/с2 %
    10:00Практически безоблачно+29°C73 %756 мм3.8 м/с2 %
    13:00Ясно и безоблачно+31°C63 %755 мм4.8 м/с3 %
    16:00Облачно с прояснениями+30°C65 %755 мм4.7 м/с4 %
    19:00Практически безоблачно+27°C78 %755 мм3.7 м/с2 %
    22:00Ясно и безоблачно+24°C93 %756 мм2.4 м/с2 %
Мы используем cookies
Соглашаюсь